Time;durP1;ratioP1;P1;durP2;ratioP2;P2;SDS_P1;SDS_P2;PMS_P1;PMS_P2;Temp;Humidity;BMP_temperature;BMP_pressure;BME280_temperature;BME280_humidity;BME280_pressure;Samples;Min_cycle;Max_cycle;Signal;HPM_P1;HPM_P2
2022/01/10 00:01:59;;;;;;;12.20;6.53;;;4.40;99.90;;;;;;5089533;28;20259;-74
2022/01/10 00:04:26;;;;;;;16.10;6.73;;;4.40;99.90;;;;;;5070963;28;20260;-74
2022/01/10 00:06:53;;;;;;;12.70;6.83;;;4.40;99.90;;;;;;5073647;28;20673;-74
2022/01/10 00:09:20;;;;;;;15.20;6.63;;;4.40;99.90;;;;;;5084599;28;20637;-74
2022/01/10 00:11:47;;;;;;;16.63;7.33;;;4.50;99.90;;;;;;5087877;28;20201;-74
2022/01/10 00:14:15;;;;;;;20.13;6.87;;;4.50;99.90;;;;;;5092115;28;20201;-74
2022/01/10 00:16:42;;;;;;;14.00;6.47;;;4.50;99.90;;;;;;5075846;28;20263;-74
2022/01/10 00:19:09;;;;;;;16.80;6.40;;;4.50;99.90;;;;;;5076379;28;20613;-74
2022/01/10 00:21:36;;;;;;;15.17;6.80;;;4.40;99.90;;;;;;5075176;28;20268;-74
2022/01/10 00:24:04;;;;;;;17.10;7.50;;;4.40;99.90;;;;;;5091058;28;20205;-74
2022/01/10 00:26:31;;;;;;;14.43;7.70;;;4.50;99.90;;;;;;5078524;28;20198;-74
2022/01/10 00:28:58;;;;;;;15.40;7.40;;;4.50;99.90;;;;;;5087342;28;20205;-74
2022/01/10 00:31:26;;;;;;;16.30;8.10;;;4.60;99.90;;;;;;5076779;28;20206;-74
2022/01/10 00:33:54;;;;;;;15.70;7.57;;;4.60;99.90;;;;;;5088097;28;20259;-74
2022/01/10 00:36:21;;;;;;;12.87;7.30;;;4.60;99.90;;;;;;5095038;28;20206;-74
2022/01/10 00:38:48;;;;;;;15.63;7.33;;;4.60;99.90;;;;;;5092823;28;20549;-74
2022/01/10 00:41:15;;;;;;;14.07;7.47;;;4.60;99.90;;;;;;5095176;28;20675;-74
2022/01/10 00:43:46;;;;;;;19.30;7.90;;;4.60;99.90;;;;;;5083118;28;20264;-74
2022/01/10 00:46:13;;;;;;;16.47;7.40;;;4.60;99.90;;;;;;5089653;28;20278;-74
2022/01/10 00:48:42;;;;;;;17.77;7.90;;;4.60;99.90;;;;;;5094516;28;20778;-74
2022/01/10 00:51:09;;;;;;;14.43;7.90;;;4.60;99.90;;;;;;5094100;28;20202;-74
2022/01/10 00:53:36;;;;;;;15.03;6.73;;;4.60;99.90;;;;;;5092862;28;20648;-74
2022/01/10 00:56:03;;;;;;;17.07;8.33;;;4.60;99.90;;;;;;5094107;28;20206;-74
2022/01/10 00:58:30;;;;;;;14.30;7.37;;;4.60;99.90;;;;;;5077351;28;20549;-74
2022/01/10 01:00:57;;;;;;;13.67;7.73;;;4.60;99.90;;;;;;5080231;28;20206;-74
2022/01/10 01:03:24;;;;;;;17.97;7.60;;;4.60;99.90;;;;;;5073574;28;20206;-74
2022/01/10 01:05:53;;;;;;;17.27;7.40;;;4.60;99.90;;;;;;5090551;28;20299;-74
2022/01/10 01:08:20;;;;;;;19.43;7.57;;;4.60;99.90;;;;;;5081959;28;20251;-74
2022/01/10 01:13:36;;;;;;;19.47;7.57;;;4.60;99.90;;;;;;5074617;28;20766;-74
2022/01/10 01:16:14;;;;;;;14.90;7.30;;;4.60;99.90;;;;;;5075479;28;20218;-74
2022/01/10 01:24:10;;;;;;;15.40;7.77;;;4.50;99.90;;;;;;5092719;28;20226;-74
2022/01/10 01:26:39;;;;;;;21.23;7.70;;;4.50;99.90;;;;;;5093562;28;21167;-74
2022/01/10 01:29:09;;;;;;;16.57;8.37;;;4.60;99.90;;;;;;5093554;28;20202;-74
2022/01/10 01:31:36;;;;;;;15.03;7.37;;;4.50;99.90;;;;;;5093498;28;20206;-73
2022/01/10 01:34:03;;;;;;;18.20;8.03;;;4.50;99.90;;;;;;5093849;28;20202;-74
2022/01/10 01:36:33;;;;;;;18.07;8.00;;;4.40;99.90;;;;;;5090735;28;20259;-73
2022/01/10 01:39:05;;;;;;;17.90;8.03;;;4.40;99.90;;;;;;5093675;28;20262;-74
2022/01/10 01:41:40;;;;;;;22.53;8.73;;;4.40;99.90;;;;;;5093054;28;20297;-74
2022/01/10 01:44:07;;;;;;;17.33;8.13;;;4.40;99.90;;;;;;5091229;28;20209;-74
2022/01/10 01:46:34;;;;;;;15.73;7.73;;;4.40;99.90;;;;;;5090867;28;20769;-74
2022/01/10 01:49:01;;;;;;;17.70;8.80;;;4.40;99.90;;;;;;5091328;28;20205;-74
2022/01/10 01:51:29;;;;;;;16.83;7.43;;;4.40;99.90;;;;;;5074746;28;20680;-73
2022/01/10 01:53:57;;;;;;;15.83;7.47;;;4.40;99.90;;;;;;5076619;28;20206;-74
2022/01/10 01:56:25;;;;;;;17.50;7.67;;;4.40;99.90;;;;;;5076591;28;20263;-74
2022/01/10 01:58:54;;;;;;;16.73;7.77;;;4.40;99.90;;;;;;5087779;28;20656;-74
2022/01/10 02:01:22;;;;;;;17.77;7.27;;;4.40;99.90;;;;;;5076849;28;20566;-74
2022/01/10 02:03:51;;;;;;;16.93;7.47;;;4.40;99.90;;;;;;5076524;28;20729;-74
2022/01/10 02:06:18;;;;;;;16.80;7.80;;;4.40;99.90;;;;;;5084437;28;20261;-74
2022/01/10 02:08:45;;;;;;;14.33;7.70;;;4.40;99.90;;;;;;5086896;28;20609;-74
2022/01/10 02:11:15;;;;;;;18.53;7.17;;;4.40;99.90;;;;;;5092542;28;20598;-74
2022/01/10 02:13:44;;;;;;;31.07;7.97;;;4.30;99.90;;;;;;5083573;28;20195;-74
2022/01/10 02:16:16;;;;;;;14.97;6.83;;;4.40;99.90;;;;;;5089586;28;20201;-74
2022/01/10 02:18:44;;;;;;;15.53;7.83;;;4.30;99.90;;;;;;5093244;28;20206;-74
2022/01/10 02:21:14;;;;;;;18.87;8.47;;;4.30;99.90;;;;;;5092642;28;20209;-74
2022/01/10 02:23:42;;;;;;;17.43;8.33;;;4.20;99.90;;;;;;5092788;28;20280;-74
2022/01/10 02:26:09;;;;;;;14.67;7.53;;;4.20;99.90;;;;;;5088430;28;20225;-74
2022/01/10 02:28:36;;;;;;;16.90;6.87;;;4.20;99.90;;;;;;5090988;28;20200;-74
2022/01/10 02:31:04;;;;;;;13.43;6.60;;;4.20;99.90;;;;;;5084267;28;20222;-74
2022/01/10 02:33:32;;;;;;;14.60;7.03;;;4.20;99.90;;;;;;5072543;28;20252;-74
2022/01/10 02:36:09;;;;;;;16.33;6.70;;;4.20;99.90;;;;;;5081604;28;20193;-74
2022/01/10 02:38:45;;;;;;;18.47;6.90;;;4.10;99.90;;;;;;5091683;28;20201;-74
2022/01/10 02:41:19;;;;;;;15.10;6.70;;;4.10;99.90;;;;;;5090860;28;20220;-74
2022/01/10 02:43:46;;;;;;;16.20;6.93;;;4.00;99.90;;;;;;5092866;28;20202;-74
2022/01/10 02:46:13;;;;;;;12.13;6.43;;;3.90;99.90;;;;;;5074521;28;20287;-74
2022/01/10 02:48:40;;;;;;;21.27;8.93;;;3.90;99.90;;;;;;5090651;28;20223;-74
2022/01/10 02:51:07;;;;;;;16.87;7.27;;;3.90;99.90;;;;;;5092441;28;20197;-74
2022/01/10 02:53:34;;;;;;;16.63;6.50;;;3.90;99.90;;;;;;5088111;28;20225;-74
2022/01/10 02:56:03;;;;;;;17.60;7.33;;;3.90;99.90;;;;;;5091034;28;20258;-74
2022/01/10 02:58:30;;;;;;;13.37;7.00;;;3.90;99.90;;;;;;5092062;28;20209;-74
2022/01/10 03:00:57;;;;;;;16.87;6.87;;;3.90;99.90;;;;;;5092447;28;20232;-74
2022/01/10 03:03:26;;;;;;;16.13;7.73;;;3.90;99.90;;;;;;5079215;28;20603;-74
2022/01/10 03:05:54;;;;;;;15.17;7.37;;;4.00;99.90;;;;;;5077129;28;20261;-74
2022/01/10 03:08:21;;;;;;;16.60;7.00;;;4.00;99.90;;;;;;5076273;28;20210;-74
2022/01/10 03:10:48;;;;;;;18.27;7.77;;;4.10;99.90;;;;;;5076718;28;20194;-74
2022/01/10 03:13:17;;;;;;;18.23;8.20;;;4.10;99.90;;;;;;5083669;28;20210;-74
2022/01/10 03:15:44;;;;;;;17.00;7.03;;;4.10;99.90;;;;;;5076340;28;20210;-74
2022/01/10 03:18:12;;;;;;;13.90;6.93;;;4.10;99.90;;;;;;5089954;28;20693;-74
2022/01/10 03:20:39;;;;;;;15.13;7.13;;;4.10;99.90;;;;;;5079304;28;20259;-74
2022/01/10 03:23:07;;;;;;;16.77;7.13;;;4.10;99.90;;;;;;5072012;28;20202;-74
2022/01/10 03:25:34;;;;;;;16.87;7.70;;;4.20;99.90;;;;;;5079787;28;20226;-74
2022/01/10 03:28:01;;;;;;;17.10;7.43;;;4.20;99.90;;;;;;5079859;28;20277;-74
2022/01/10 03:30:30;;;;;;;14.97;7.17;;;4.20;99.90;;;;;;5091030;28;20198;-74
2022/01/10 03:32:59;;;;;;;18.07;7.67;;;4.20;99.90;;;;;;5075008;28;20198;-74
2022/01/10 03:35:26;;;;;;;16.00;7.30;;;4.20;99.90;;;;;;5083630;28;20560;-74
2022/01/10 03:37:53;;;;;;;19.00;7.33;;;4.20;99.90;;;;;;5081238;28;20193;-74
2022/01/10 03:40:21;;;;;;;19.13;7.87;;;4.20;99.90;;;;;;5091754;28;20217;-74
2022/01/10 03:42:47;;;;;;;18.17;7.50;;;4.20;99.90;;;;;;5081568;28;20207;-74
2022/01/10 03:45:15;;;;;;;16.30;7.50;;;4.20;99.90;;;;;;5076874;28;20214;-74
2022/01/10 03:47:43;;;;;;;16.73;7.37;;;4.20;99.90;;;;;;5075678;28;20254;-74
2022/01/10 03:50:11;;;;;;;16.43;7.27;;;4.10;99.90;;;;;;5093647;28;20197;-74
2022/01/10 03:52:38;;;;;;;17.80;7.30;;;3.90;99.90;;;;;;5104855;28;20201;-74
2022/01/10 03:55:06;;;;;;;17.07;7.83;;;3.90;99.90;;;;;;5087828;27;20278;-74
2022/01/10 03:57:33;;;;;;;18.73;8.17;;;3.90;99.90;;;;;;5095953;28;20267;-74
2022/01/10 04:00:00;;;;;;;18.07;7.30;;;3.90;99.90;;;;;;5082438;28;20206;-74
2022/01/10 04:02:30;;;;;;;16.90;7.07;;;3.80;99.90;;;;;;5075934;28;20613;-74
2022/01/10 04:04:59;;;;;;;14.37;7.70;;;3.80;99.90;;;;;;5087119;28;20292;-74
2022/01/10 04:07:26;;;;;;;15.07;7.23;;;3.80;99.90;;;;;;5095978;28;20239;-74
2022/01/10 04:09:53;;;;;;;16.77;7.03;;;3.70;99.90;;;;;;5094051;28;20202;-74
2022/01/10 04:12:21;;;;;;;16.77;7.43;;;3.70;99.90;;;;;;5080522;28;20255;-74
2022/01/10 04:14:48;;;;;;;17.27;7.77;;;3.70;99.90;;;;;;5074668;28;20565;-74
2022/01/10 04:17:15;;;;;;;17.20;7.67;;;3.70;99.90;;;;;;5087642;28;20201;-74
2022/01/10 04:19:42;;;;;;;23.70;9.90;;;3.70;99.90;;;;;;5079910;28;20252;-74
2022/01/10 04:22:11;;;;;;;18.10;8.27;;;3.70;99.90;;;;;;5093749;28;20251;-73
2022/01/10 04:24:38;;;;;;;20.77;9.10;;;3.80;99.90;;;;;;5095499;28;20197;-73
2022/01/10 04:27:06;;;;;;;17.93;8.87;;;3.90;99.90;;;;;;5095646;28;20260;-74
2022/01/10 04:29:33;;;;;;;24.00;9.40;;;4.00;99.90;;;;;;5095127;28;20205;-73
2022/01/10 04:32:01;;;;;;;25.97;11.80;;;4.10;99.90;;;;;;5095516;28;20596;-74
2022/01/10 04:34:28;;;;;;;25.23;11.97;;;4.20;99.90;;;;;;5094949;28;20205;-74
2022/01/10 04:36:55;;;;;;;24.30;11.50;;;4.20;99.90;;;;;;5095304;28;20651;-74
2022/01/10 04:39:23;;;;;;;23.43;10.80;;;4.20;99.90;;;;;;5095158;28;20259;-74
2022/01/10 04:41:50;;;;;;;20.03;9.53;;;4.20;99.90;;;;;;5094976;28;20202;-74
2022/01/10 04:44:17;;;;;;;23.83;11.20;;;4.30;99.90;;;;;;5094561;28;20201;-74
2022/01/10 04:46:45;;;;;;;21.73;10.07;;;4.30;99.90;;;;;;5095303;28;20298;-74
2022/01/10 04:49:21;;;;;;;26.23;11.53;;;4.30;99.90;;;;;;5094735;28;20202;-74
2022/01/10 04:51:49;;;;;;;20.10;9.63;;;4.40;99.90;;;;;;5093575;28;20213;-74
2022/01/10 04:54:18;;;;;;;20.87;9.77;;;4.40;99.90;;;;;;5094939;28;20190;-74
2022/01/10 04:56:46;;;;;;;22.10;9.03;;;4.30;99.90;;;;;;5095158;28;20202;-74
2022/01/10 04:59:14;;;;;;;21.77;10.37;;;4.30;99.90;;;;;;5094631;28;20267;-74
2022/01/10 05:01:41;;;;;;;18.23;9.30;;;4.30;99.90;;;;;;5094821;28;20240;-74
2022/01/10 05:04:10;;;;;;;19.07;8.43;;;4.30;99.90;;;;;;5094131;28;20255;-74
2022/01/10 05:06:37;;;;;;;20.83;9.60;;;4.30;99.90;;;;;;5094565;28;20236;-74
2022/01/10 05:09:04;;;;;;;17.23;9.00;;;4.20;99.90;;;;;;5094588;28;20205;-74
2022/01/10 05:11:33;;;;;;;28.40;9.50;;;4.20;99.90;;;;;;5093570;28;20251;-74
2022/01/10 05:14:01;;;;;;;20.63;9.07;;;4.20;99.90;;;;;;5092585;28;20209;-74
2022/01/10 05:16:28;;;;;;;20.53;9.03;;;4.20;99.90;;;;;;5093613;28;20205;-74
2022/01/10 05:18:55;;;;;;;20.10;9.83;;;4.10;99.90;;;;;;5093647;28;20210;-74
2022/01/10 05:21:22;;;;;;;18.70;8.97;;;4.10;99.90;;;;;;5094616;28;20255;-74
2022/01/10 05:23:49;;;;;;;18.53;8.70;;;4.10;99.90;;;;;;5093893;28;20194;-74
2022/01/10 05:26:16;;;;;;;17.53;9.07;;;4.10;99.90;;;;;;5094098;28;20229;-74
2022/01/10 05:28:43;;;;;;;23.07;10.63;;;4.10;99.90;;;;;;5094226;28;20619;-74
2022/01/10 05:31:12;;;;;;;23.83;9.90;;;4.00;99.90;;;;;;5094301;28;20254;-74
2022/01/10 05:33:39;;;;;;;21.30;9.93;;;4.00;99.90;;;;;;5093966;28;20262;-74
2022/01/10 05:36:06;;;;;;;23.27;13.33;;;4.10;99.90;;;;;;5094193;28;20210;-74
2022/01/10 05:38:33;;;;;;;23.13;10.00;;;4.10;99.90;;;;;;5093741;28;20255;-74
2022/01/10 05:41:00;;;;;;;19.90;10.50;;;4.00;99.90;;;;;;5093890;28;20259;-74
2022/01/10 05:43:27;;;;;;;24.07;9.37;;;3.90;99.90;;;;;;5093700;28;20254;-74
2022/01/10 05:45:54;;;;;;;17.20;8.73;;;3.90;99.90;;;;;;5093723;28;20274;-74
2022/01/10 05:48:26;;;;;;;22.07;8.67;;;3.80;99.90;;;;;;5093943;28;20254;-74
2022/01/10 05:50:53;;;;;;;19.43;8.67;;;3.90;99.90;;;;;;5093995;28;20625;-74
2022/01/10 05:53:20;;;;;;;18.93;8.73;;;3.80;99.90;;;;;;5093495;28;20205;-74
2022/01/10 05:55:48;;;;;;;21.00;8.47;;;3.90;99.90;;;;;;5093667;28;20233;-74
2022/01/10 05:58:16;;;;;;;21.77;8.70;;;3.80;99.90;;;;;;5093519;28;20274;-74
2022/01/10 06:00:43;;;;;;;19.13;8.87;;;3.80;99.90;;;;;;5093786;28;20542;-74
2022/01/10 06:03:10;;;;;;;22.43;8.90;;;3.80;99.90;;;;;;5093451;28;20227;-73
2022/01/10 06:05:39;;;;;;;19.20;9.07;;;3.70;99.90;;;;;;5093119;28;20263;-74
2022/01/10 06:08:08;;;;;;;18.97;8.20;;;3.70;99.90;;;;;;5093652;28;20976;-74
2022/01/10 06:10:36;;;;;;;16.00;8.83;;;3.60;99.90;;;;;;5093672;28;20247;-74
2022/01/10 06:13:03;;;;;;;18.60;8.33;;;3.60;99.90;;;;;;5092946;28;20181;-74
2022/01/10 06:15:30;;;;;;;16.33;10.13;;;3.50;99.90;;;;;;5093680;28;20628;-74
2022/01/10 06:17:57;;;;;;;17.03;7.73;;;3.50;99.90;;;;;;5093493;28;20585;-74
2022/01/10 06:20:24;;;;;;;17.37;8.27;;;3.40;99.90;;;;;;5093164;28;20202;-74
2022/01/10 06:22:53;;;;;;;18.80;8.40;;;3.40;99.90;;;;;;5093551;28;20201;-74
2022/01/10 06:25:23;;;;;;;14.17;7.97;;;3.40;99.90;;;;;;5093050;28;20251;-74
2022/01/10 06:27:50;;;;;;;19.60;8.77;;;3.40;99.90;;;;;;5092802;28;20218;-74
2022/01/10 06:30:17;;;;;;;18.40;8.97;;;3.40;99.90;;;;;;5092818;28;20246;-74
2022/01/10 06:32:45;;;;;;;21.53;8.87;;;3.40;99.90;;;;;;5092877;28;20197;-74
2022/01/10 06:35:13;;;;;;;17.57;8.87;;;3.30;99.90;;;;;;5092562;28;20286;-74
2022/01/10 06:37:40;;;;;;;20.90;9.30;;;3.20;99.90;;;;;;5092734;28;20275;-74
2022/01/10 06:40:09;;;;;;;21.23;9.23;;;3.20;99.90;;;;;;5093131;28;20322;-74
2022/01/10 06:42:37;;;;;;;23.00;9.47;;;3.20;99.90;;;;;;5092388;28;20208;-74
2022/01/10 06:45:04;;;;;;;20.60;9.93;;;3.20;99.90;;;;;;5092962;28;20201;-74
2022/01/10 06:47:31;;;;;;;18.63;9.93;;;3.20;99.90;;;;;;5093031;28;20229;-74
2022/01/10 06:49:58;;;;;;;21.17;10.57;;;3.20;99.90;;;;;;5092063;28;20198;-74
2022/01/10 06:52:26;;;;;;;20.47;10.03;;;3.10;99.90;;;;;;5092449;28;20197;-74
2022/01/10 06:54:53;;;;;;;25.00;10.63;;;3.10;99.90;;;;;;5092798;28;20202;-74
2022/01/10 06:57:21;;;;;;;23.73;10.47;;;3.20;99.90;;;;;;5092375;28;20206;-74
2022/01/10 06:59:49;;;;;;;24.60;10.43;;;3.20;99.90;;;;;;5092797;28;20198;-74
2022/01/10 07:02:16;;;;;;;23.17;11.07;;;3.20;99.90;;;;;;5092673;28;20263;-74
2022/01/10 07:04:43;;;;;;;23.07;10.43;;;3.20;99.90;;;;;;5092139;28;20257;-74
2022/01/10 07:07:10;;;;;;;18.93;10.47;;;3.20;99.90;;;;;;5092525;28;20297;-74
2022/01/10 07:09:37;;;;;;;32.10;11.07;;;3.30;99.90;;;;;;5092729;28;20201;-74
2022/01/10 07:12:05;;;;;;;24.43;10.17;;;3.30;99.90;;;;;;5092184;28;20206;-74
2022/01/10 07:14:35;;;;;;;24.27;11.47;;;3.30;99.90;;;;;;5092097;28;20208;-74
2022/01/10 07:17:02;;;;;;;25.30;11.20;;;3.30;99.90;;;;;;5095522;28;20209;-74
2022/01/10 07:19:29;;;;;;;21.10;10.57;;;3.40;99.90;;;;;;5096573;28;20197;-74
2022/01/10 07:21:56;;;;;;;23.33;11.30;;;3.30;99.90;;;;;;5096611;28;20251;-74
2022/01/10 07:24:23;;;;;;;20.53;10.90;;;3.30;99.90;;;;;;5096259;28;20206;-74
2022/01/10 07:26:50;;;;;;;18.87;9.73;;;3.20;99.90;;;;;;5096603;28;20263;-74
2022/01/10 07:29:17;;;;;;;24.03;10.50;;;3.30;99.90;;;;;;5096155;28;20248;-74
2022/01/10 07:31:46;;;;;;;23.43;10.83;;;3.30;99.90;;;;;;5096702;28;20255;-75
2022/01/10 07:34:15;;;;;;;19.57;10.00;;;3.30;99.90;;;;;;5096122;28;20247;-74
2022/01/10 07:36:42;;;;;;;20.80;10.87;;;3.40;99.90;;;;;;5095950;28;20201;-74
2022/01/10 07:39:11;;;;;;;23.20;10.77;;;3.40;99.90;;;;;;5096746;28;20251;-74
2022/01/10 07:41:38;;;;;;;24.17;11.17;;;3.40;99.90;;;;;;5096161;28;20185;-74
2022/01/10 07:44:05;;;;;;;23.27;11.00;;;3.50;99.90;;;;;;5095771;28;20267;-74
2022/01/10 07:46:33;;;;;;;23.03;11.63;;;3.60;99.90;;;;;;5095951;28;20271;-74
2022/01/10 07:49:01;;;;;;;24.93;13.63;;;3.60;99.90;;;;;;5095714;28;20522;-74
2022/01/10 07:51:28;;;;;;;22.40;11.47;;;3.60;99.90;;;;;;5096245;28;20194;-74
2022/01/10 07:53:55;;;;;;;25.63;11.33;;;3.70;99.90;;;;;;5096293;28;20258;-74
2022/01/10 07:56:22;;;;;;;23.97;11.40;;;3.70;99.90;;;;;;5096222;28;20198;-74
2022/01/10 07:58:51;;;;;;;25.73;11.47;;;3.90;99.90;;;;;;5095708;28;20201;-74
2022/01/10 08:01:19;;;;;;;22.37;11.07;;;3.80;99.90;;;;;;5096402;28;20300;-74
2022/01/10 08:03:46;;;;;;;24.17;11.87;;;3.80;99.90;;;;;;5095250;28;20206;-74
2022/01/10 08:06:15;;;;;;;24.27;12.23;;;3.80;99.90;;;;;;5096056;28;20239;-74
2022/01/10 08:08:42;;;;;;;23.17;11.37;;;3.90;99.90;;;;;;5095492;28;20271;-74
2022/01/10 08:11:09;;;;;;;22.77;12.00;;;3.90;99.90;;;;;;5095882;28;20255;-74
2022/01/10 08:13:36;;;;;;;24.30;11.70;;;4.10;99.90;;;;;;5094850;28;20198;-74
2022/01/10 08:16:04;;;;;;;26.03;12.10;;;4.10;99.90;;;;;;5095609;28;20267;-74
2022/01/10 08:18:33;;;;;;;23.80;11.30;;;4.10;99.90;;;;;;5095747;28;20197;-74
2022/01/10 08:21:01;;;;;;;27.17;11.83;;;4.20;99.90;;;;;;5095628;28;20284;-75
2022/01/10 08:23:29;;;;;;;25.87;11.83;;;4.20;99.90;;;;;;5095626;28;20202;-74
2022/01/10 08:25:57;;;;;;;25.60;12.60;;;4.20;99.90;;;;;;5095713;28;20206;-74
2022/01/10 08:28:24;;;;;;;30.43;11.73;;;4.20;99.90;;;;;;5094749;28;20695;-75
2022/01/10 08:30:51;;;;;;;24.53;11.13;;;4.20;99.90;;;;;;5095182;28;20210;-74
2022/01/10 08:33:18;;;;;;;26.47;12.07;;;4.20;99.90;;;;;;5095361;28;20205;-75
2022/01/10 08:35:45;;;;;;;21.10;11.33;;;4.20;99.90;;;;;;5095242;28;20202;-74
2022/01/10 08:38:13;;;;;;;21.87;12.13;;;4.30;99.90;;;;;;5095402;28;20201;-74
2022/01/10 08:40:41;;;;;;;26.97;11.63;;;4.30;99.90;;;;;;5095226;28;20240;-75
2022/01/10 08:43:10;;;;;;;26.50;12.13;;;4.30;99.90;;;;;;5094085;28;20209;-75
2022/01/10 08:45:38;;;;;;;26.13;12.03;;;4.30;99.90;;;;;;5093446;28;20197;-75
2022/01/10 08:48:06;;;;;;;24.00;12.33;;;4.40;99.90;;;;;;5094839;28;20221;-75
2022/01/10 08:50:34;;;;;;;29.93;13.10;;;4.40;99.90;;;;;;5094691;28;20259;-74
2022/01/10 08:53:02;;;;;;;24.43;12.07;;;4.40;99.90;;;;;;5094852;28;20289;-75
2022/01/10 08:55:29;;;;;;;27.70;13.57;;;4.50;99.90;;;;;;5094571;28;20193;-74
2022/01/10 08:57:58;;;;;;;28.87;13.90;;;4.50;99.90;;;;;;5094165;28;20182;-74
2022/01/10 09:00:25;;;;;;;25.07;13.77;;;4.50;99.90;;;;;;5094788;28;20263;-74
2022/01/10 09:02:52;;;;;;;28.53;14.43;;;4.60;99.90;;;;;;5094723;28;20640;-74
2022/01/10 09:05:20;;;;;;;27.23;13.37;;;4.60;99.90;;;;;;5094488;28;20251;-74
2022/01/10 09:07:48;;;;;;;29.40;14.83;;;4.60;99.90;;;;;;5094603;28;20279;-74
2022/01/10 09:10:15;;;;;;;30.13;13.93;;;4.70;99.90;;;;;;5094598;28;20237;-75
2022/01/10 09:12:42;;;;;;;32.20;14.30;;;4.70;99.90;;;;;;5094573;28;20328;-74
2022/01/10 09:15:11;;;;;;;34.80;15.00;;;4.70;99.90;;;;;;5093975;28;20267;-75
2022/01/10 09:17:38;;;;;;;35.87;16.60;;;4.70;99.90;;;;;;5094752;28;20197;-75
2022/01/10 09:20:06;;;;;;;33.87;17.27;;;4.80;99.90;;;;;;5094346;28;20247;-74
2022/01/10 09:22:33;;;;;;;37.60;18.50;;;4.80;99.90;;;;;;5094301;28;20661;-74
2022/01/10 09:25:00;;;;;;;34.03;15.13;;;4.80;99.90;;;;;;5094199;28;20214;-74
2022/01/10 09:27:27;;;;;;;30.47;13.77;;;4.90;99.90;;;;;;5094160;28;20233;-75
2022/01/10 09:29:54;;;;;;;33.57;16.83;;;4.90;99.90;;;;;;5094481;28;20259;-75
2022/01/10 09:32:22;;;;;;;32.50;15.37;;;5.00;99.90;;;;;;5094261;28;20894;-74
2022/01/10 09:34:49;;;;;;;29.30;15.40;;;5.00;99.90;;;;;;5094192;28;20534;-74
2022/01/10 09:37:16;;;;;;;29.87;14.60;;;5.00;99.90;;;;;;5093947;28;20206;-75
2022/01/10 09:39:43;;;;;;;30.07;13.80;;;5.10;99.90;;;;;;5092836;28;20248;-75
2022/01/10 09:42:12;;;;;;;26.87;13.73;;;5.10;99.90;;;;;;5093602;28;20636;-74
2022/01/10 09:44:40;;;;;;;32.03;14.03;;;5.10;99.90;;;;;;5093761;28;20206;-74
2022/01/10 09:47:07;;;;;;;27.63;13.00;;;5.00;99.90;;;;;;5093703;28;20255;-74
2022/01/10 09:49:35;;;;;;;31.10;14.17;;;5.00;99.90;;;;;;5093870;28;20198;-74
2022/01/10 09:52:03;;;;;;;31.30;13.73;;;5.10;99.90;;;;;;5093705;28;20205;-74
2022/01/10 09:54:30;;;;;;;24.93;12.87;;;5.10;99.90;;;;;;5093311;28;20206;-74
2022/01/10 09:56:57;;;;;;;28.53;12.97;;;5.10;99.90;;;;;;5093455;28;20201;-74
2022/01/10 09:59:25;;;;;;;26.27;13.23;;;5.20;99.90;;;;;;5093586;28;20202;-74
2022/01/10 10:01:53;;;;;;;26.27;12.73;;;5.20;99.90;;;;;;5094136;28;20641;-74
2022/01/10 10:04:20;;;;;;;27.43;13.30;;;5.20;99.90;;;;;;5092852;28;20210;-75
2022/01/10 10:06:49;;;;;;;31.83;13.37;;;5.20;99.90;;;;;;5093524;28;20210;-74
2022/01/10 10:09:17;;;;;;;27.20;11.87;;;5.20;99.90;;;;;;5093855;28;20228;-74
2022/01/10 10:11:46;;;;;;;26.10;12.47;;;5.30;99.90;;;;;;5093525;28;20198;-74
2022/01/10 10:14:17;;;;;;;30.03;12.63;;;5.30;99.90;;;;;;5093109;28;20854;-74
2022/01/10 10:16:50;;;;;;;26.77;12.47;;;5.40;99.90;;;;;;5093449;28;20209;-74
2022/01/10 10:19:19;;;;;;;27.00;12.97;;;5.40;99.90;;;;;;5108883;28;20284;-74
2022/01/10 10:21:47;;;;;;;22.50;11.70;;;5.50;99.90;;;;;;5093275;28;20230;-74
2022/01/10 10:24:15;;;;;;;26.10;12.37;;;5.60;99.90;;;;;;5093423;28;20656;-75
2022/01/10 10:26:42;;;;;;;31.67;13.57;;;5.60;99.90;;;;;;5093429;28;20254;-74
2022/01/10 10:29:13;;;;;;;27.80;12.70;;;5.70;99.90;;;;;;5092921;28;20248;-74
2022/01/10 10:31:45;;;;;;;30.37;11.80;;;5.80;99.90;;;;;;5092893;28;20271;-74
2022/01/10 10:34:17;;;;;;;25.10;10.80;;;5.70;99.90;;;;;;5092717;28;20267;-74
2022/01/10 10:36:44;;;;;;;23.93;11.07;;;5.90;99.90;;;;;;5093568;28;20244;-74
2022/01/10 10:39:13;;;;;;;22.20;8.87;;;5.90;99.90;;;;;;5093421;28;20285;-75
2022/01/10 10:41:42;;;;;;;22.90;8.57;;;5.80;99.90;;;;;;5092643;28;20595;-74
2022/01/10 10:44:09;;;;;;;19.83;8.43;;;5.90;99.90;;;;;;5092573;28;20217;-74
2022/01/10 10:46:37;;;;;;;21.57;8.40;;;5.90;99.90;;;;;;5092584;28;20334;-74
2022/01/10 10:49:04;;;;;;;23.53;8.13;;;5.90;99.90;;;;;;5092634;28;20228;-74
2022/01/10 10:51:34;;;;;;;22.83;7.93;;;5.90;99.90;;;;;;5093024;28;20280;-74
2022/01/10 10:54:06;;;;;;;23.40;9.03;;;5.90;99.90;;;;;;5092690;28;20590;-74
2022/01/10 10:56:37;;;;;;;21.30;8.97;;;5.90;99.90;;;;;;5092882;28;20258;-74
2022/01/10 10:59:04;;;;;;;19.07;7.83;;;5.90;99.90;;;;;;5092512;28;20265;-74
2022/01/10 11:01:31;;;;;;;22.63;8.63;;;5.90;99.90;;;;;;5092753;28;20236;-75
2022/01/10 11:03:58;;;;;;;22.37;9.13;;;5.90;99.90;;;;;;5092029;28;20654;-74
2022/01/10 11:06:28;;;;;;;25.73;9.20;;;5.90;99.90;;;;;;5092902;28;20206;-74
2022/01/10 11:08:56;;;;;;;17.20;8.53;;;5.90;99.90;;;;;;5092860;28;20229;-74
2022/01/10 11:11:24;;;;;;;24.33;9.97;;;5.90;99.90;;;;;;5092815;28;20207;-74
2022/01/10 11:13:55;;;;;;;24.07;9.97;;;5.90;99.90;;;;;;5092133;28;20606;-74
2022/01/10 11:16:22;;;;;;;22.43;9.63;;;5.90;99.90;;;;;;5092799;28;20197;-75
2022/01/10 11:18:50;;;;;;;30.23;11.87;;;5.90;99.90;;;;;;5092295;28;20270;-74
2022/01/10 11:21:17;;;;;;;25.63;10.80;;;5.90;99.90;;;;;;5092661;28;20547;-74
2022/01/10 11:23:46;;;;;;;22.70;9.93;;;5.90;99.90;;;;;;5092251;28;20201;-74
2022/01/10 11:26:14;;;;;;;26.10;9.63;;;5.90;99.90;;;;;;5092639;28;20266;-74
2022/01/10 11:28:49;;;;;;;27.00;11.30;;;6.00;99.90;;;;;;5092122;28;20221;-74
2022/01/10 11:31:22;;;;;;;23.17;10.23;;;6.00;99.90;;;;;;5092654;28;20203;-74
2022/01/10 11:33:50;;;;;;;24.40;10.23;;;6.00;99.90;;;;;;5091106;28;20206;-74
2022/01/10 11:36:20;;;;;;;21.57;10.03;;;6.00;99.90;;;;;;5092407;28;20606;-74
2022/01/10 11:38:49;;;;;;;19.90;9.97;;;6.00;99.90;;;;;;5092452;28;20194;-75
2022/01/10 11:41:17;;;;;;;27.67;12.27;;;6.10;99.90;;;;;;5092163;28;20198;-74
2022/01/10 11:43:51;;;;;;;26.67;10.90;;;6.20;99.90;;;;;;5091735;28;20249;-74
2022/01/10 11:46:23;;;;;;;23.07;9.50;;;6.20;99.90;;;;;;5092413;28;20202;-69
2022/01/10 11:48:55;;;;;;;27.53;12.10;;;6.20;99.90;;;;;;5092166;28;20310;-70
2022/01/10 11:51:24;;;;;;;30.73;11.63;;;6.30;99.90;;;;;;5092164;28;20209;-71
2022/01/10 11:53:53;;;;;;;21.80;9.17;;;6.30;99.90;;;;;;5092200;28;20202;-70
2022/01/10 11:56:31;;;;;;;29.77;10.47;;;6.20;99.90;;;;;;5092167;28;20325;-71
2022/01/10 11:59:22;;;;;;;30.10;12.53;;;6.20;99.90;;;;;;5091917;28;20202;-71
2022/01/10 12:01:57;;;;;;;25.87;12.37;;;6.30;99.90;;;;;;5092717;28;20198;-71
2022/01/10 12:04:26;;;;;;;24.23;11.10;;;6.20;99.90;;;;;;5094235;28;20248;-70
2022/01/10 12:06:53;;;;;;;21.87;9.87;;;6.40;99.90;;;;;;5095909;28;20659;-70
2022/01/10 12:09:21;;;;;;;31.20;12.30;;;6.50;99.90;;;;;;5095799;28;20229;-70
2022/01/10 12:11:50;;;;;;;20.90;9.17;;;6.40;99.90;;;;;;5095311;28;20198;-71
2022/01/10 12:14:18;;;;;;;23.67;9.57;;;6.50;99.90;;;;;;5094231;28;20198;-69
2022/01/10 12:16:45;;;;;;;18.07;9.17;;;6.50;99.90;;;;;;5095695;28;20600;-69
2022/01/10 12:19:14;;;;;;;26.07;11.77;;;6.50;99.90;;;;;;5095500;28;20213;-70
2022/01/10 12:21:42;;;;;;;23.10;9.40;;;6.50;99.90;;;;;;5095524;28;20660;-69
2022/01/10 12:24:09;;;;;;;23.63;9.47;;;6.50;99.90;;;;;;5095627;28;20205;-69
2022/01/10 12:26:38;;;;;;;26.60;10.47;;;6.50;99.90;;;;;;5094953;28;20775;-70
2022/01/10 12:29:07;;;;;;;26.57;10.43;;;6.50;99.90;;;;;;5095264;28;20754;-69
2022/01/10 12:31:35;;;;;;;18.97;8.33;;;6.60;99.90;;;;;;5095680;28;20186;-69
2022/01/10 12:34:04;;;;;;;19.40;8.60;;;6.70;99.90;;;;;;5095237;28;20548;-70
2022/01/10 12:36:34;;;;;;;25.37;9.40;;;6.70;99.90;;;;;;5095526;28;20205;-69
2022/01/10 12:39:03;;;;;;;23.73;8.13;;;6.60;99.90;;;;;;5095507;28;20210;-69
2022/01/10 12:41:32;;;;;;;26.30;11.07;;;6.60;99.90;;;;;;5095027;28;20206;-69
2022/01/10 12:44:00;;;;;;;24.63;9.27;;;6.60;99.90;;;;;;5099342;28;20205;-69
2022/01/10 12:46:31;;;;;;;28.53;10.93;;;6.60;99.90;;;;;;5103651;28;20236;-69
2022/01/10 12:49:02;;;;;;;29.37;8.53;;;6.50;99.90;;;;;;5103081;28;20337;-68
2022/01/10 12:51:36;;;;;;;24.33;10.33;;;6.50;99.90;;;;;;5098880;28;20619;-68
2022/01/10 12:54:05;;;;;;;23.57;8.70;;;6.50;99.90;;;;;;5094043;28;20560;-68
2022/01/10 12:56:32;;;;;;;23.20;9.57;;;6.50;99.90;;;;;;5102773;28;20212;-69